sensor_id;sensor_type;location;lat;lon;timestamp;P1;durP1;ratioP1;P2;durP2;ratioP2
64903;SDS011;51401;48.882;12.598;2022-09-27T00:02:02;5.93;;;3.85;;
64903;SDS011;51401;48.882;12.598;2022-09-27T00:04:27;5.63;;;3.73;;
64903;SDS011;51401;48.882;12.598;2022-09-27T00:06:52;5.47;;;3.83;;
64903;SDS011;51401;48.882;12.598;2022-09-27T00:09:18;5.05;;;3.78;;
64903;SDS011;51401;48.882;12.598;2022-09-27T00:11:43;5.45;;;3.95;;
64903;SDS011;51401;48.882;12.598;2022-09-27T00:14:10;6.93;;;4.20;;
64903;SDS011;51401;48.882;12.598;2022-09-27T00:16:38;5.32;;;4.38;;
64903;SDS011;51401;48.882;12.598;2022-09-27T00:19:05;4.85;;;4.20;;
64903;SDS011;51401;48.882;12.598;2022-09-27T00:21:32;6.88;;;4.10;;
64903;SDS011;51401;48.882;12.598;2022-09-27T00:23:58;5.45;;;3.83;;
64903;SDS011;51401;48.882;12.598;2022-09-27T00:26:24;5.38;;;4.22;;
64903;SDS011;51401;48.882;12.598;2022-09-27T00:28:50;5.50;;;3.88;;
64903;SDS011;51401;48.882;12.598;2022-09-27T00:31:20;5.53;;;3.90;;
64903;SDS011;51401;48.882;12.598;2022-09-27T00:36:22;3.70;;;3.35;;
64903;SDS011;51401;48.882;12.598;2022-09-27T00:38:49;5.60;;;4.60;;
64903;SDS011;51401;48.882;12.598;2022-09-27T00:41:23;4.25;;;3.53;;
64903;SDS011;51401;48.882;12.598;2022-09-27T00:46:59;6.03;;;3.70;;
64903;SDS011;51401;48.882;12.598;2022-09-27T00:49:35;5.45;;;3.92;;
64903;SDS011;51401;48.882;12.598;2022-09-27T00:52:07;6.00;;;4.43;;
64903;SDS011;51401;48.882;12.598;2022-09-27T00:54:40;5.90;;;3.78;;
64903;SDS011;51401;48.882;12.598;2022-09-27T00:57:08;5.25;;;3.60;;
64903;SDS011;51401;48.882;12.598;2022-09-27T00:59:41;3.40;;;3.10;;
64903;SDS011;51401;48.882;12.598;2022-09-27T01:02:10;4.57;;;2.83;;
64903;SDS011;51401;48.882;12.598;2022-09-27T01:04:36;3.55;;;2.38;;
64903;SDS011;51401;48.882;12.598;2022-09-27T01:07:03;3.80;;;2.47;;
64903;SDS011;51401;48.882;12.598;2022-09-27T01:09:29;3.58;;;2.30;;
64903;SDS011;51401;48.882;12.598;2022-09-27T01:31:14;2.35;;;1.70;;
64903;SDS011;51401;48.882;12.598;2022-09-27T01:36:22;2.53;;;1.77;;
64903;SDS011;51401;48.882;12.598;2022-09-27T01:39:58;2.05;;;1.60;;
64903;SDS011;51401;48.882;12.598;2022-09-27T01:42:00;2.70;;;1.88;;
64903;SDS011;51401;48.882;12.598;2022-09-27T01:44:49;2.50;;;1.87;;
64903;SDS011;51401;48.882;12.598;2022-09-27T01:47:20;2.90;;;2.00;;
64903;SDS011;51401;48.882;12.598;2022-09-27T01:50:00;1.92;;;1.55;;
64903;SDS011;51401;48.882;12.598;2022-09-27T01:52:34;2.38;;;2.10;;
64903;SDS011;51401;48.882;12.598;2022-09-27T01:55:04;2.38;;;1.88;;
64903;SDS011;51401;48.882;12.598;2022-09-27T01:57:36;2.60;;;2.00;;
64903;SDS011;51401;48.882;12.598;2022-09-27T02:00:05;2.00;;;1.80;;
64903;SDS011;51401;48.882;12.598;2022-09-27T02:02:34;2.25;;;1.77;;
64903;SDS011;51401;48.882;12.598;2022-09-27T02:05:04;2.75;;;1.85;;
64903;SDS011;51401;48.882;12.598;2022-09-27T02:07:52;2.20;;;1.80;;
64903;SDS011;51401;48.882;12.598;2022-09-27T02:10:26;2.13;;;1.88;;
64903;SDS011;51401;48.882;12.598;2022-09-27T02:12:59;2.78;;;1.63;;
64903;SDS011;51401;48.882;12.598;2022-09-27T02:15:39;2.10;;;1.80;;
64903;SDS011;51401;48.882;12.598;2022-09-27T02:18:15;2.47;;;2.13;;
64903;SDS011;51401;48.882;12.598;2022-09-27T02:20:50;2.55;;;2.08;;
64903;SDS011;51401;48.882;12.598;2022-09-27T02:23:38;3.13;;;1.80;;
64903;SDS011;51401;48.882;12.598;2022-09-27T02:26:11;2.40;;;1.80;;
64903;SDS011;51401;48.882;12.598;2022-09-27T02:31:16;2.20;;;1.77;;
64903;SDS011;51401;48.882;12.598;2022-09-27T02:33:59;3.08;;;1.92;;
64903;SDS011;51401;48.882;12.598;2022-09-27T02:36:27;2.22;;;1.67;;
64903;SDS011;51401;48.882;12.598;2022-09-27T02:38:54;4.40;;;1.90;;
64903;SDS011;51401;48.882;12.598;2022-09-27T02:41:20;2.83;;;2.03;;
64903;SDS011;51401;48.882;12.598;2022-09-27T02:43:47;2.75;;;1.77;;
64903;SDS011;51401;48.882;12.598;2022-09-27T02:54:43;2.88;;;2.00;;
64903;SDS011;51401;48.882;12.598;2022-09-27T03:03:32;3.05;;;1.92;;
64903;SDS011;51401;48.882;12.598;2022-09-27T03:05:25;2.92;;;1.80;;
64903;SDS011;51401;48.882;12.598;2022-09-27T03:07:54;2.50;;;1.60;;
64903;SDS011;51401;48.882;12.598;2022-09-27T03:10:21;2.22;;;1.50;;
64903;SDS011;51401;48.882;12.598;2022-09-27T03:12:50;2.78;;;1.98;;
64903;SDS011;51401;48.882;12.598;2022-09-27T03:15:15;3.00;;;1.83;;
64903;SDS011;51401;48.882;12.598;2022-09-27T03:17:41;2.80;;;1.70;;
64903;SDS011;51401;48.882;12.598;2022-09-27T03:20:06;3.03;;;2.30;;
64903;SDS011;51401;48.882;12.598;2022-09-27T03:22:33;3.15;;;1.88;;
64903;SDS011;51401;48.882;12.598;2022-09-27T03:24:58;2.35;;;1.75;;
64903;SDS011;51401;48.882;12.598;2022-09-27T03:27:23;2.63;;;1.65;;
64903;SDS011;51401;48.882;12.598;2022-09-27T03:29:49;2.67;;;1.50;;
64903;SDS011;51401;48.882;12.598;2022-09-27T03:32:14;3.30;;;1.80;;
64903;SDS011;51401;48.882;12.598;2022-09-27T03:34:39;2.42;;;1.60;;
64903;SDS011;51401;48.882;12.598;2022-09-27T03:37:05;1.95;;;1.42;;
64903;SDS011;51401;48.882;12.598;2022-09-27T03:39:30;2.05;;;1.60;;
64903;SDS011;51401;48.882;12.598;2022-09-27T03:41:57;2.00;;;1.42;;
64903;SDS011;51401;48.882;12.598;2022-09-27T03:44:22;2.55;;;1.70;;
64903;SDS011;51401;48.882;12.598;2022-09-27T03:46:47;3.45;;;1.77;;
64903;SDS011;51401;48.882;12.598;2022-09-27T03:49:13;5.35;;;1.92;;
64903;SDS011;51401;48.882;12.598;2022-09-27T03:51:38;2.63;;;1.60;;
64903;SDS011;51401;48.882;12.598;2022-09-27T03:54:03;2.87;;;1.63;;
64903;SDS011;51401;48.882;12.598;2022-09-27T03:56:28;2.53;;;1.70;;
64903;SDS011;51401;48.882;12.598;2022-09-27T03:58:54;2.60;;;1.37;;
64903;SDS011;51401;48.882;12.598;2022-09-27T04:01:19;2.63;;;1.43;;
64903;SDS011;51401;48.882;12.598;2022-09-27T04:03:44;1.65;;;1.55;;
64903;SDS011;51401;48.882;12.598;2022-09-27T04:06:10;2.97;;;1.63;;
64903;SDS011;51401;48.882;12.598;2022-09-27T04:08:35;2.72;;;1.23;;
64903;SDS011;51401;48.882;12.598;2022-09-27T04:11:01;2.20;;;1.73;;
64903;SDS011;51401;48.882;12.598;2022-09-27T04:13:27;2.20;;;1.40;;
64903;SDS011;51401;48.882;12.598;2022-09-27T04:15:52;2.10;;;1.67;;
64903;SDS011;51401;48.882;12.598;2022-09-27T04:18:18;2.47;;;1.65;;
64903;SDS011;51401;48.882;12.598;2022-09-27T04:20:43;2.60;;;1.77;;
64903;SDS011;51401;48.882;12.598;2022-09-27T04:23:09;2.80;;;1.80;;
64903;SDS011;51401;48.882;12.598;2022-09-27T04:25:34;2.70;;;1.60;;
64903;SDS011;51401;48.882;12.598;2022-09-27T04:27:59;2.70;;;1.65;;
64903;SDS011;51401;48.882;12.598;2022-09-27T04:30:27;1.98;;;1.63;;
64903;SDS011;51401;48.882;12.598;2022-09-27T04:32:53;2.60;;;1.67;;
64903;SDS011;51401;48.882;12.598;2022-09-27T04:35:18;2.47;;;1.60;;
64903;SDS011;51401;48.882;12.598;2022-09-27T04:38:02;2.10;;;1.50;;
64903;SDS011;51401;48.882;12.598;2022-09-27T04:40:28;2.28;;;1.65;;
64903;SDS011;51401;48.882;12.598;2022-09-27T04:42:53;2.78;;;1.70;;
64903;SDS011;51401;48.882;12.598;2022-09-27T04:45:19;1.98;;;1.65;;
64903;SDS011;51401;48.882;12.598;2022-09-27T04:47:46;2.92;;;1.73;;
64903;SDS011;51401;48.882;12.598;2022-09-27T04:50:13;2.72;;;1.55;;
64903;SDS011;51401;48.882;12.598;2022-09-27T04:52:39;2.70;;;1.40;;
64903;SDS011;51401;48.882;12.598;2022-09-27T04:55:05;3.13;;;1.42;;
64903;SDS011;51401;48.882;12.598;2022-09-27T04:57:31;2.97;;;1.52;;
64903;SDS011;51401;48.882;12.598;2022-09-27T04:59:57;2.55;;;1.50;;
64903;SDS011;51401;48.882;12.598;2022-09-27T05:02:25;2.25;;;1.65;;
64903;SDS011;51401;48.882;12.598;2022-09-27T05:04:52;1.98;;;1.30;;
64903;SDS011;51401;48.882;12.598;2022-09-27T05:07:20;2.15;;;1.38;;
64903;SDS011;51401;48.882;12.598;2022-09-27T05:09:45;1.13;;;1.00;;
64903;SDS011;51401;48.882;12.598;2022-09-27T05:12:11;2.30;;;1.40;;
64903;SDS011;51401;48.882;12.598;2022-09-27T05:14:37;2.85;;;1.90;;
64903;SDS011;51401;48.882;12.598;2022-09-27T05:17:03;1.83;;;1.25;;
64903;SDS011;51401;48.882;12.598;2022-09-27T05:19:28;2.28;;;1.08;;
64903;SDS011;51401;48.882;12.598;2022-09-27T05:21:54;1.65;;;1.40;;
64903;SDS011;51401;48.882;12.598;2022-09-27T05:24:19;2.10;;;1.30;;
64903;SDS011;51401;48.882;12.598;2022-09-27T05:26:45;2.10;;;1.33;;
64903;SDS011;51401;48.882;12.598;2022-09-27T05:29:11;1.30;;;1.10;;
64903;SDS011;51401;48.882;12.598;2022-09-27T05:31:36;2.22;;;1.10;;
64903;SDS011;51401;48.882;12.598;2022-09-27T05:34:02;2.72;;;1.38;;
64903;SDS011;51401;48.882;12.598;2022-09-27T05:36:27;2.20;;;1.45;;
64903;SDS011;51401;48.882;12.598;2022-09-27T05:38:52;2.72;;;1.70;;
64903;SDS011;51401;48.882;12.598;2022-09-27T05:41:18;1.60;;;1.50;;
64903;SDS011;51401;48.882;12.598;2022-09-27T05:43:44;3.10;;;1.40;;
64903;SDS011;51401;48.882;12.598;2022-09-27T05:46:10;1.48;;;1.20;;
64903;SDS011;51401;48.882;12.598;2022-09-27T05:48:35;2.05;;;1.50;;
64903;SDS011;51401;48.882;12.598;2022-09-27T05:51:02;2.03;;;1.38;;
64903;SDS011;51401;48.882;12.598;2022-09-27T05:53:27;3.08;;;1.70;;
64903;SDS011;51401;48.882;12.598;2022-09-27T05:55:53;1.45;;;1.30;;
64903;SDS011;51401;48.882;12.598;2022-09-27T05:58:18;2.25;;;1.40;;
64903;SDS011;51401;48.882;12.598;2022-09-27T06:00:44;1.98;;;1.15;;
64903;SDS011;51401;48.882;12.598;2022-09-27T06:03:10;3.45;;;1.45;;
64903;SDS011;51401;48.882;12.598;2022-09-27T06:05:37;2.38;;;1.33;;
64903;SDS011;51401;48.882;12.598;2022-09-27T06:08:07;1.63;;;1.40;;
64903;SDS011;51401;48.882;12.598;2022-09-27T06:10:33;1.52;;;1.10;;
64903;SDS011;51401;48.882;12.598;2022-09-27T06:12:59;1.50;;;1.20;;
64903;SDS011;51401;48.882;12.598;2022-09-27T06:15:26;1.30;;;1.00;;
64903;SDS011;51401;48.882;12.598;2022-09-27T06:17:53;1.98;;;1.35;;
64903;SDS011;51401;48.882;12.598;2022-09-27T06:20:19;2.72;;;1.30;;
64903;SDS011;51401;48.882;12.598;2022-09-27T06:22:44;1.98;;;1.25;;
64903;SDS011;51401;48.882;12.598;2022-09-27T06:25:10;1.85;;;1.40;;
64903;SDS011;51401;48.882;12.598;2022-09-27T06:27:36;2.25;;;1.55;;
64903;SDS011;51401;48.882;12.598;2022-09-27T06:30:01;2.28;;;1.52;;
64903;SDS011;51401;48.882;12.598;2022-09-27T06:32:27;2.17;;;1.58;;
64903;SDS011;51401;48.882;12.598;2022-09-27T06:34:52;1.80;;;1.30;;
64903;SDS011;51401;48.882;12.598;2022-09-27T06:37:17;2.10;;;1.85;;
64903;SDS011;51401;48.882;12.598;2022-09-27T06:39:42;2.40;;;1.70;;
64903;SDS011;51401;48.882;12.598;2022-09-27T06:42:08;2.07;;;1.60;;
64903;SDS011;51401;48.882;12.598;2022-09-27T06:44:35;2.80;;;1.65;;
64903;SDS011;51401;48.882;12.598;2022-09-27T06:47:00;2.60;;;1.60;;
64903;SDS011;51401;48.882;12.598;2022-09-27T06:49:25;2.38;;;2.17;;
64903;SDS011;51401;48.882;12.598;2022-09-27T06:51:51;2.95;;;1.67;;
64903;SDS011;51401;48.882;12.598;2022-09-27T06:54:17;1.65;;;1.17;;
64903;SDS011;51401;48.882;12.598;2022-09-27T06:56:43;3.33;;;1.60;;
64903;SDS011;51401;48.882;12.598;2022-09-27T06:59:10;3.83;;;1.40;;
64903;SDS011;51401;48.882;12.598;2022-09-27T07:01:54;2.28;;;1.33;;
64903;SDS011;51401;48.882;12.598;2022-09-27T07:04:20;1.60;;;1.07;;
64903;SDS011;51401;48.882;12.598;2022-09-27T07:06:45;1.63;;;0.93;;
64903;SDS011;51401;48.882;12.598;2022-09-27T07:09:10;1.50;;;1.38;;
64903;SDS011;51401;48.882;12.598;2022-09-27T07:11:36;1.02;;;0.85;;
64903;SDS011;51401;48.882;12.598;2022-09-27T07:14:02;3.10;;;1.25;;
64903;SDS011;51401;48.882;12.598;2022-09-27T07:16:28;1.75;;;1.13;;
64903;SDS011;51401;48.882;12.598;2022-09-27T07:18:55;1.20;;;1.10;;
64903;SDS011;51401;48.882;12.598;2022-09-27T07:21:21;1.90;;;1.25;;
64903;SDS011;51401;48.882;12.598;2022-09-27T07:23:48;2.67;;;1.20;;
64903;SDS011;51401;48.882;12.598;2022-09-27T07:26:13;2.28;;;1.20;;
64903;SDS011;51401;48.882;12.598;2022-09-27T07:28:38;1.95;;;1.15;;
64903;SDS011;51401;48.882;12.598;2022-09-27T07:31:05;1.10;;;1.00;;
64903;SDS011;51401;48.882;12.598;2022-09-27T07:33:31;1.38;;;1.17;;
64903;SDS011;51401;48.882;12.598;2022-09-27T07:35:57;1.00;;;0.80;;
64903;SDS011;51401;48.882;12.598;2022-09-27T07:38:22;1.40;;;1.00;;
64903;SDS011;51401;48.882;12.598;2022-09-27T07:40:48;2.00;;;1.10;;
64903;SDS011;51401;48.882;12.598;2022-09-27T07:43:13;3.10;;;1.20;;
64903;SDS011;51401;48.882;12.598;2022-09-27T07:45:39;1.52;;;1.00;;
64903;SDS011;51401;48.882;12.598;2022-09-27T07:48:07;1.77;;;0.95;;
64903;SDS011;51401;48.882;12.598;2022-09-27T07:50:34;1.30;;;0.87;;
64903;SDS011;51401;48.882;12.598;2022-09-27T07:53:00;1.70;;;1.00;;
64903;SDS011;51401;48.882;12.598;2022-09-27T07:55:25;1.02;;;0.80;;
64903;SDS011;51401;48.882;12.598;2022-09-27T07:57:51;1.10;;;1.00;;
64903;SDS011;51401;48.882;12.598;2022-09-27T08:00:16;1.73;;;1.27;;
64903;SDS011;51401;48.882;12.598;2022-09-27T08:02:45;1.80;;;1.02;;
64903;SDS011;51401;48.882;12.598;2022-09-27T08:05:11;2.78;;;1.70;;
64903;SDS011;51401;48.882;12.598;2022-09-27T08:07:37;1.17;;;0.90;;
64903;SDS011;51401;48.882;12.598;2022-09-27T08:10:03;1.23;;;1.00;;
64903;SDS011;51401;48.882;12.598;2022-09-27T08:12:30;1.40;;;1.00;;
64903;SDS011;51401;48.882;12.598;2022-09-27T08:14:55;3.50;;;2.00;;
64903;SDS011;51401;48.882;12.598;2022-09-27T08:17:25;1.48;;;1.10;;
64903;SDS011;51401;48.882;12.598;2022-09-27T08:19:50;5.13;;;1.00;;
64903;SDS011;51401;48.882;12.598;2022-09-27T08:22:15;0.82;;;0.82;;
64903;SDS011;51401;48.882;12.598;2022-09-27T08:24:41;1.38;;;0.93;;
64903;SDS011;51401;48.882;12.598;2022-09-27T08:27:06;1.52;;;0.75;;
64903;SDS011;51401;48.882;12.598;2022-09-27T08:29:35;1.38;;;0.85;;
64903;SDS011;51401;48.882;12.598;2022-09-27T08:32:01;1.10;;;0.60;;
64903;SDS011;51401;48.882;12.598;2022-09-27T08:34:27;1.50;;;0.82;;
64903;SDS011;51401;48.882;12.598;2022-09-27T08:36:53;2.90;;;0.95;;
64903;SDS011;51401;48.882;12.598;2022-09-27T08:39:19;1.83;;;0.70;;
64903;SDS011;51401;48.882;12.598;2022-09-27T08:41:48;1.63;;;0.73;;
64903;SDS011;51401;48.882;12.598;2022-09-27T08:52:16;1.27;;;0.80;;
64903;SDS011;51401;48.882;12.598;2022-09-27T08:54:47;1.17;;;0.80;;
64903;SDS011;51401;48.882;12.598;2022-09-27T08:57:15;1.33;;;0.80;;
64903;SDS011;51401;48.882;12.598;2022-09-27T08:59:46;3.63;;;1.20;;
64903;SDS011;51401;48.882;12.598;2022-09-27T09:02:22;0.80;;;0.70;;
64903;SDS011;51401;48.882;12.598;2022-09-27T09:04:50;1.95;;;0.90;;
64903;SDS011;51401;48.882;12.598;2022-09-27T09:07:27;6.47;;;1.05;;
64903;SDS011;51401;48.882;12.598;2022-09-27T09:21:58;3.78;;;1.30;;
64903;SDS011;51401;48.882;12.598;2022-09-27T09:24:35;3.65;;;1.02;;
64903;SDS011;51401;48.882;12.598;2022-09-27T09:30:19;1.13;;;0.85;;
64903;SDS011;51401;48.882;12.598;2022-09-27T09:33:07;1.55;;;0.82;;
64903;SDS011;51401;48.882;12.598;2022-09-27T09:38:31;1.42;;;0.80;;
64903;SDS011;51401;48.882;12.598;2022-09-27T09:41:03;1.30;;;0.88;;
64903;SDS011;51401;48.882;12.598;2022-09-27T09:43:41;1.23;;;0.80;;
64903;SDS011;51401;48.882;12.598;2022-09-27T09:46:34;1.02;;;0.77;;
64903;SDS011;51401;48.882;12.598;2022-09-27T09:51:47;0.90;;;0.80;;
64903;SDS011;51401;48.882;12.598;2022-09-27T09:54:21;1.98;;;0.80;;
64903;SDS011;51401;48.882;12.598;2022-09-27T09:57:24;1.92;;;0.95;;
64903;SDS011;51401;48.882;12.598;2022-09-27T09:59:48;1.95;;;0.70;;
64903;SDS011;51401;48.882;12.598;2022-09-27T10:02:25;2.05;;;0.80;;
64903;SDS011;51401;48.882;12.598;2022-09-27T10:04:55;4.10;;;0.95;;
64903;SDS011;51401;48.882;12.598;2022-09-27T10:07:21;1.42;;;0.47;;
64903;SDS011;51401;48.882;12.598;2022-09-27T10:09:47;1.20;;;0.65;;
64903;SDS011;51401;48.882;12.598;2022-09-27T10:12:14;0.40;;;0.40;;
64903;SDS011;51401;48.882;12.598;2022-09-27T10:14:40;0.70;;;0.40;;
64903;SDS011;51401;48.882;12.598;2022-09-27T10:17:10;1.38;;;0.80;;
64903;SDS011;51401;48.882;12.598;2022-09-27T10:19:38;1.63;;;0.63;;
64903;SDS011;51401;48.882;12.598;2022-09-27T10:25:00;1.65;;;0.80;;
64903;SDS011;51401;48.882;12.598;2022-09-27T10:27:38;0.80;;;0.80;;
64903;SDS011;51401;48.882;12.598;2022-09-27T10:30:11;1.20;;;0.75;;
64903;SDS011;51401;48.882;12.598;2022-09-27T10:32:47;1.55;;;0.80;;
64903;SDS011;51401;48.882;12.598;2022-09-27T10:37:52;1.00;;;0.70;;
64903;SDS011;51401;48.882;12.598;2022-09-27T10:40:25;2.90;;;0.90;;
64903;SDS011;51401;48.882;12.598;2022-09-27T10:42:57;2.90;;;0.70;;
64903;SDS011;51401;48.882;12.598;2022-09-27T10:45:29;1.88;;;0.80;;
64903;SDS011;51401;48.882;12.598;2022-09-27T10:47:57;0.80;;;0.60;;
64903;SDS011;51401;48.882;12.598;2022-09-27T10:50:25;2.25;;;0.75;;
64903;SDS011;51401;48.882;12.598;2022-09-27T10:55:49;0.88;;;0.52;;
64903;SDS011;51401;48.882;12.598;2022-09-27T10:58:17;1.48;;;0.65;;
64903;SDS011;51401;48.882;12.598;2022-09-27T11:00:57;1.23;;;0.60;;
64903;SDS011;51401;48.882;12.598;2022-09-27T11:03:31;0.65;;;0.65;;
64903;SDS011;51401;48.882;12.598;2022-09-27T11:05:59;2.13;;;0.87;;
64903;SDS011;51401;48.882;12.598;2022-09-27T11:08:42;0.77;;;0.57;;
64903;SDS011;51401;48.882;12.598;2022-09-27T11:14:03;1.73;;;0.60;;
64903;SDS011;51401;48.882;12.598;2022-09-27T11:16:49;1.08;;;0.60;;
64903;SDS011;51401;48.882;12.598;2022-09-27T11:19:36;0.70;;;0.70;;
64903;SDS011;51401;48.882;12.598;2022-09-27T11:25:10;2.05;;;0.80;;
64903;SDS011;51401;48.882;12.598;2022-09-27T11:30:51;4.55;;;0.80;;
64903;SDS011;51401;48.882;12.598;2022-09-27T11:33:42;1.45;;;0.60;;
64903;SDS011;51401;48.882;12.598;2022-09-27T11:36:12;3.45;;;0.90;;
64903;SDS011;51401;48.882;12.598;2022-09-27T11:44:28;0.75;;;0.70;;
64903;SDS011;51401;48.882;12.598;2022-09-27T12:01:02;1.88;;;0.70;;
64903;SDS011;51401;48.882;12.598;2022-09-27T12:03:35;1.08;;;0.60;;
64903;SDS011;51401;48.882;12.598;2022-09-27T12:06:05;2.10;;;0.77;;
64903;SDS011;51401;48.882;12.598;2022-09-27T12:11:22;3.00;;;0.80;;
64903;SDS011;51401;48.882;12.598;2022-09-27T12:13:56;2.03;;;0.50;;
64903;SDS011;51401;48.882;12.598;2022-09-27T12:16:22;0.47;;;0.35;;
64903;SDS011;51401;48.882;12.598;2022-09-27T12:18:50;1.02;;;0.52;;
64903;SDS011;51401;48.882;12.598;2022-09-27T12:21:17;1.33;;;0.60;;
64903;SDS011;51401;48.882;12.598;2022-09-27T12:23:45;2.83;;;0.57;;
64903;SDS011;51401;48.882;12.598;2022-09-27T12:26:24;0.98;;;0.40;;
64903;SDS011;51401;48.882;12.598;2022-09-27T12:29:01;2.13;;;0.60;;
64903;SDS011;51401;48.882;12.598;2022-09-27T12:31:40;1.35;;;0.60;;
64903;SDS011;51401;48.882;12.598;2022-09-27T12:34:14;1.88;;;0.90;;
64903;SDS011;51401;48.882;12.598;2022-09-27T12:37:01;1.52;;;0.60;;
64903;SDS011;51401;48.882;12.598;2022-09-27T12:42:39;1.92;;;0.70;;
64903;SDS011;51401;48.882;12.598;2022-09-27T12:45:12;2.00;;;0.45;;
64903;SDS011;51401;48.882;12.598;2022-09-27T12:50:21;1.73;;;0.98;;
64903;SDS011;51401;48.882;12.598;2022-09-27T12:52:55;2.40;;;0.70;;
64903;SDS011;51401;48.882;12.598;2022-09-27T12:55:34;1.25;;;0.47;;
64903;SDS011;51401;48.882;12.598;2022-09-27T12:58:18;0.60;;;0.40;;
64903;SDS011;51401;48.882;12.598;2022-09-27T13:00:58;3.33;;;0.50;;
64903;SDS011;51401;48.882;12.598;2022-09-27T13:03:33;1.13;;;0.60;;
64903;SDS011;51401;48.882;12.598;2022-09-27T13:14:34;0.70;;;0.60;;
64903;SDS011;51401;48.882;12.598;2022-09-27T13:17:05;0.40;;;0.40;;
64903;SDS011;51401;48.882;12.598;2022-09-27T13:19:43;1.95;;;0.65;;
64903;SDS011;51401;48.882;12.598;2022-09-27T13:25:01;1.23;;;0.70;;
64903;SDS011;51401;48.882;12.598;2022-09-27T13:32:33;0.88;;;0.47;;
64903;SDS011;51401;48.882;12.598;2022-09-27T13:37:55;0.93;;;0.60;;
64903;SDS011;51401;48.882;12.598;2022-09-27T13:40:26;1.55;;;0.50;;
64903;SDS011;51401;48.882;12.598;2022-09-27T13:45:51;1.27;;;0.50;;
64903;SDS011;51401;48.882;12.598;2022-09-27T13:48:30;0.70;;;0.45;;
64903;SDS011;51401;48.882;12.598;2022-09-27T13:51:15;0.68;;;0.50;;
64903;SDS011;51401;48.882;12.598;2022-09-27T13:54:00;1.02;;;0.52;;
64903;SDS011;51401;48.882;12.598;2022-09-27T13:59:53;1.75;;;0.65;;
64903;SDS011;51401;48.882;12.598;2022-09-27T14:02:18;0.82;;;0.50;;
64903;SDS011;51401;48.882;12.598;2022-09-27T14:04:48;1.15;;;0.57;;
64903;SDS011;51401;48.882;12.598;2022-09-27T14:07:16;1.08;;;0.68;;
64903;SDS011;51401;48.882;12.598;2022-09-27T14:09:47;2.17;;;1.30;;
64903;SDS011;51401;48.882;12.598;2022-09-27T14:12:31;2.13;;;0.70;;
64903;SDS011;51401;48.882;12.598;2022-09-27T14:15:00;29.33;;;4.15;;
64903;SDS011;51401;48.882;12.598;2022-09-27T14:17:27;1.35;;;0.70;;
64903;SDS011;51401;48.882;12.598;2022-09-27T14:19:55;2.42;;;1.50;;
64903;SDS011;51401;48.882;12.598;2022-09-27T14:22:21;3.58;;;1.67;;
64903;SDS011;51401;48.882;12.598;2022-09-27T14:24:48;1.02;;;0.85;;
64903;SDS011;51401;48.882;12.598;2022-09-27T14:27:22;1.85;;;1.50;;
64903;SDS011;51401;48.882;12.598;2022-09-27T14:29:58;4.07;;;1.67;;
64903;SDS011;51401;48.882;12.598;2022-09-27T14:32:29;2.67;;;1.25;;
64903;SDS011;51401;48.882;12.598;2022-09-27T14:37:53;1.98;;;1.00;;
64903;SDS011;51401;48.882;12.598;2022-09-27T14:40:20;1.60;;;1.00;;
64903;SDS011;51401;48.882;12.598;2022-09-27T14:42:46;1.70;;;1.10;;
64903;SDS011;51401;48.882;12.598;2022-09-27T14:45:19;2.47;;;1.23;;
64903;SDS011;51401;48.882;12.598;2022-09-27T14:47:47;1.20;;;0.80;;
64903;SDS011;51401;48.882;12.598;2022-09-27T14:50:27;4.55;;;2.55;;
64903;SDS011;51401;48.882;12.598;2022-09-27T14:52:54;5.60;;;2.70;;
64903;SDS011;51401;48.882;12.598;2022-09-27T14:55:25;3.90;;;3.10;;
64903;SDS011;51401;48.882;12.598;2022-09-27T15:00:24;1.00;;;0.70;;
64903;SDS011;51401;48.882;12.598;2022-09-27T15:02:53;2.33;;;1.30;;
64903;SDS011;51401;48.882;12.598;2022-09-27T15:05:30;5.00;;;4.55;;
64903;SDS011;51401;48.882;12.598;2022-09-27T15:07:57;2.97;;;2.53;;
64903;SDS011;51401;48.882;12.598;2022-09-27T15:10:26;2.00;;;1.60;;
64903;SDS011;51401;48.882;12.598;2022-09-27T15:12:55;2.35;;;1.05;;
64903;SDS011;51401;48.882;12.598;2022-09-27T15:15:35;1.73;;;1.00;;
64903;SDS011;51401;48.882;12.598;2022-09-27T15:18:27;1.70;;;1.00;;
64903;SDS011;51401;48.882;12.598;2022-09-27T15:20:57;2.17;;;1.40;;
64903;SDS011;51401;48.882;12.598;2022-09-27T15:23:25;3.10;;;0.98;;
64903;SDS011;51401;48.882;12.598;2022-09-27T15:26:26;2.75;;;1.60;;
64903;SDS011;51401;48.882;12.598;2022-09-27T15:28:48;1.85;;;1.20;;
64903;SDS011;51401;48.882;12.598;2022-09-27T15:31:16;2.67;;;0.90;;
64903;SDS011;51401;48.882;12.598;2022-09-27T15:33:42;3.40;;;1.88;;
64903;SDS011;51401;48.882;12.598;2022-09-27T15:36:18;1.48;;;0.90;;
64903;SDS011;51401;48.882;12.598;2022-09-27T15:39:37;1.60;;;0.98;;
64903;SDS011;51401;48.882;12.598;2022-09-27T15:47:00;1.27;;;0.88;;
64903;SDS011;51401;48.882;12.598;2022-09-27T15:49:27;0.80;;;0.70;;
64903;SDS011;51401;48.882;12.598;2022-09-27T15:51:58;1.70;;;1.23;;
64903;SDS011;51401;48.882;12.598;2022-09-27T15:54:26;2.58;;;1.40;;
64903;SDS011;51401;48.882;12.598;2022-09-27T15:56:54;1.95;;;1.25;;
64903;SDS011;51401;48.882;12.598;2022-09-27T15:59:27;2.03;;;1.25;;
64903;SDS011;51401;48.882;12.598;2022-09-27T16:04:23;2.72;;;1.08;;
64903;SDS011;51401;48.882;12.598;2022-09-27T16:06:50;3.28;;;1.17;;
64903;SDS011;51401;48.882;12.598;2022-09-27T16:09:17;1.90;;;1.08;;
64903;SDS011;51401;48.882;12.598;2022-09-27T16:11:44;1.60;;;1.05;;
64903;SDS011;51401;48.882;12.598;2022-09-27T16:14:13;2.22;;;1.35;;
64903;SDS011;51401;48.882;12.598;2022-09-27T16:16:46;4.20;;;1.88;;
64903;SDS011;51401;48.882;12.598;2022-09-27T16:19:13;2.20;;;1.08;;
64903;SDS011;51401;48.882;12.598;2022-09-27T16:21:38;1.85;;;1.17;;
64903;SDS011;51401;48.882;12.598;2022-09-27T16:24:06;2.47;;;1.27;;
64903;SDS011;51401;48.882;12.598;2022-09-27T16:26:32;6.78;;;2.13;;
64903;SDS011;51401;48.882;12.598;2022-09-27T16:28:58;4.70;;;1.95;;
64903;SDS011;51401;48.882;12.598;2022-09-27T16:31:23;3.10;;;1.60;;
64903;SDS011;51401;48.882;12.598;2022-09-27T16:33:48;2.50;;;1.03;;
64903;SDS011;51401;48.882;12.598;2022-09-27T16:36:14;2.78;;;1.50;;
64903;SDS011;51401;48.882;12.598;2022-09-27T16:38:46;2.33;;;1.00;;
64903;SDS011;51401;48.882;12.598;2022-09-27T16:41:12;4.38;;;1.63;;
64903;SDS011;51401;48.882;12.598;2022-09-27T16:43:38;8.15;;;4.97;;
64903;SDS011;51401;48.882;12.598;2022-09-27T16:46:04;1.75;;;1.10;;
64903;SDS011;51401;48.882;12.598;2022-09-27T16:48:32;5.60;;;3.65;;
64903;SDS011;51401;48.882;12.598;2022-09-27T16:51:01;3.88;;;2.88;;
64903;SDS011;51401;48.882;12.598;2022-09-27T16:54:08;3.55;;;2.47;;
64903;SDS011;51401;48.882;12.598;2022-09-27T16:56:34;5.80;;;4.40;;
64903;SDS011;51401;48.882;12.598;2022-09-27T16:59:00;3.35;;;2.42;;
64903;SDS011;51401;48.882;12.598;2022-09-27T17:01:28;1.83;;;1.20;;
64903;SDS011;51401;48.882;12.598;2022-09-27T17:03:54;1.10;;;0.90;;
64903;SDS011;51401;48.882;12.598;2022-09-27T17:06:21;1.27;;;1.10;;
64903;SDS011;51401;48.882;12.598;2022-09-27T17:08:47;1.50;;;1.20;;
64903;SDS011;51401;48.882;12.598;2022-09-27T17:11:13;1.80;;;0.73;;
64903;SDS011;51401;48.882;12.598;2022-09-27T17:13:40;0.93;;;0.90;;
64903;SDS011;51401;48.882;12.598;2022-09-27T17:16:06;0.80;;;0.77;;
64903;SDS011;51401;48.882;12.598;2022-09-27T17:18:31;1.80;;;1.15;;
64903;SDS011;51401;48.882;12.598;2022-09-27T17:21:00;1.85;;;1.50;;
64903;SDS011;51401;48.882;12.598;2022-09-27T17:23:27;4.95;;;3.45;;
64903;SDS011;51401;48.882;12.598;2022-09-27T17:25:53;4.15;;;3.35;;